sensor_id;sensor_type;location;lat;lon;timestamp;pressure;altitude;pressure_sealevel;temperature;humidity
31005;BME280;17676;52.254;4.490;2022-08-14T00:01:15;101115.50;;;23.48;100.00
31005;BME280;17676;52.254;4.490;2022-08-14T00:03:41;101112.69;;;23.52;100.00
31005;BME280;17676;52.254;4.490;2022-08-14T00:06:08;101115.78;;;23.51;100.00
31005;BME280;17676;52.254;4.490;2022-08-14T00:08:33;101111.66;;;23.43;100.00
31005;BME280;17676;52.254;4.490;2022-08-14T00:10:59;101096.25;;;23.32;100.00
31005;BME280;17676;52.254;4.490;2022-08-14T00:13:26;101093.53;;;23.27;100.00
31005;BME280;17676;52.254;4.490;2022-08-14T00:15:57;101092.13;;;23.30;100.00
31005;BME280;17676;52.254;4.490;2022-08-14T00:18:25;101082.19;;;23.29;100.00
31005;BME280;17676;52.254;4.490;2022-08-14T00:20:51;101095.69;;;23.35;100.00
31005;BME280;17676;52.254;4.490;2022-08-14T00:23:18;101093.44;;;23.42;100.00
31005;BME280;17676;52.254;4.490;2022-08-14T00:25:45;101081.59;;;23.37;100.00
31005;BME280;17676;52.254;4.490;2022-08-14T00:28:12;101079.66;;;23.32;100.00
31005;BME280;17676;52.254;4.490;2022-08-14T00:30:39;101074.97;;;23.33;100.00
31005;BME280;17676;52.254;4.490;2022-08-14T00:33:04;101064.25;;;23.26;100.00
31005;BME280;17676;52.254;4.490;2022-08-14T00:35:30;101076.72;;;23.14;100.00
31005;BME280;17676;52.254;4.490;2022-08-14T00:37:56;101083.31;;;23.18;100.00
31005;BME280;17676;52.254;4.490;2022-08-14T00:40:23;101073.13;;;23.18;100.00
31005;BME280;17676;52.254;4.490;2022-08-14T00:42:49;101067.06;;;23.21;100.00
31005;BME280;17676;52.254;4.490;2022-08-14T00:45:16;101070.91;;;23.20;100.00
31005;BME280;17676;52.254;4.490;2022-08-14T00:47:44;101073.06;;;23.28;100.00
31005;BME280;17676;52.254;4.490;2022-08-14T00:50:13;101057.66;;;23.12;100.00
31005;BME280;17676;52.254;4.490;2022-08-14T00:52:41;101061.59;;;23.06;100.00
31005;BME280;17676;52.254;4.490;2022-08-14T00:55:09;101055.78;;;23.08;100.00
31005;BME280;17676;52.254;4.490;2022-08-14T00:57:36;101058.19;;;23.19;100.00
31005;BME280;17676;52.254;4.490;2022-08-14T01:00:11;101059.59;;;23.17;100.00
31005;BME280;17676;52.254;4.490;2022-08-14T01:02:41;101057.94;;;23.16;100.00
31005;BME280;17676;52.254;4.490;2022-08-14T01:05:09;101048.81;;;23.15;100.00
31005;BME280;17676;52.254;4.490;2022-08-14T01:07:52;101045.31;;;23.05;100.00
31005;BME280;17676;52.254;4.490;2022-08-14T01:10:19;101049.50;;;22.97;100.00
31005;BME280;17676;52.254;4.490;2022-08-14T01:12:46;101048.38;;;22.98;100.00
31005;BME280;17676;52.254;4.490;2022-08-14T01:15:14;101039.84;;;22.95;100.00
31005;BME280;17676;52.254;4.490;2022-08-14T01:17:41;101036.78;;;23.01;100.00
31005;BME280;17676;52.254;4.490;2022-08-14T01:20:26;101020.81;;;22.93;100.00
31005;BME280;17676;52.254;4.490;2022-08-14T01:23:13;101016.91;;;22.94;100.00
31005;BME280;17676;52.254;4.490;2022-08-14T01:25:40;101023.56;;;22.93;100.00
31005;BME280;17676;52.254;4.490;2022-08-14T01:28:06;101017.19;;;22.93;100.00
31005;BME280;17676;52.254;4.490;2022-08-14T01:30:33;101001.25;;;22.85;100.00
31005;BME280;17676;52.254;4.490;2022-08-14T01:33:03;101002.06;;;22.85;100.00
31005;BME280;17676;52.254;4.490;2022-08-14T01:35:29;101010.88;;;22.87;100.00
31005;BME280;17676;52.254;4.490;2022-08-14T01:37:57;100994.31;;;22.87;100.00
31005;BME280;17676;52.254;4.490;2022-08-14T01:40:26;100992.44;;;22.83;100.00
31005;BME280;17676;52.254;4.490;2022-08-14T01:42:52;100997.13;;;22.82;100.00
31005;BME280;17676;52.254;4.490;2022-08-14T01:45:18;100996.31;;;22.77;100.00
31005;BME280;17676;52.254;4.490;2022-08-14T01:47:44;100987.81;;;22.68;100.00
31005;BME280;17676;52.254;4.490;2022-08-14T01:50:10;100999.63;;;22.74;100.00
31005;BME280;17676;52.254;4.490;2022-08-14T01:52:36;100990.00;;;22.71;100.00
31005;BME280;17676;52.254;4.490;2022-08-14T01:55:06;100999.91;;;22.77;100.00
31005;BME280;17676;52.254;4.490;2022-08-14T01:57:36;101000.47;;;22.74;100.00
31005;BME280;17676;52.254;4.490;2022-08-14T02:00:04;100993.63;;;22.67;100.00
31005;BME280;17676;52.254;4.490;2022-08-14T02:02:32;101003.59;;;22.63;100.00
31005;BME280;17676;52.254;4.490;2022-08-14T02:04:58;100997.81;;;22.54;100.00
31005;BME280;17676;52.254;4.490;2022-08-14T02:07:25;100990.38;;;22.45;100.00
31005;BME280;17676;52.254;4.490;2022-08-14T02:09:51;101002.00;;;22.47;100.00
31005;BME280;17676;52.254;4.490;2022-08-14T02:12:16;100996.50;;;22.42;100.00
31005;BME280;17676;52.254;4.490;2022-08-14T02:14:42;100987.72;;;22.30;100.00
31005;BME280;17676;52.254;4.490;2022-08-14T02:17:08;100996.75;;;22.35;100.00
31005;BME280;17676;52.254;4.490;2022-08-14T02:19:37;100989.34;;;22.31;100.00
31005;BME280;17676;52.254;4.490;2022-08-14T02:22:03;100984.13;;;22.24;100.00
31005;BME280;17676;52.254;4.490;2022-08-14T02:24:29;100988.25;;;22.27;100.00
31005;BME280;17676;52.254;4.490;2022-08-14T02:26:57;100987.44;;;22.26;100.00
31005;BME280;17676;52.254;4.490;2022-08-14T02:29:26;100987.97;;;22.28;100.00
31005;BME280;17676;52.254;4.490;2022-08-14T02:31:55;100973.09;;;22.24;100.00
31005;BME280;17676;52.254;4.490;2022-08-14T02:34:30;100984.91;;;22.35;100.00
31005;BME280;17676;52.254;4.490;2022-08-14T02:36:59;100981.34;;;22.29;100.00
31005;BME280;17676;52.254;4.490;2022-08-14T02:39:27;100966.22;;;22.22;100.00
31005;BME280;17676;52.254;4.490;2022-08-14T02:41:53;100970.09;;;22.16;100.00
31005;BME280;17676;52.254;4.490;2022-08-14T02:44:18;100970.34;;;22.19;100.00
31005;BME280;17676;52.254;4.490;2022-08-14T02:46:50;100979.72;;;22.18;100.00
31005;BME280;17676;52.254;4.490;2022-08-14T02:49:16;100965.13;;;22.13;100.00
31005;BME280;17676;52.254;4.490;2022-08-14T02:51:46;100965.72;;;22.10;100.00
31005;BME280;17676;52.254;4.490;2022-08-14T02:54:12;100960.72;;;22.12;100.00
31005;BME280;17676;52.254;4.490;2022-08-14T02:56:38;100966.25;;;22.12;100.00
31005;BME280;17676;52.254;4.490;2022-08-14T02:59:06;100967.63;;;22.14;100.00
31005;BME280;17676;52.254;4.490;2022-08-14T03:01:33;100961.56;;;22.07;100.00
31005;BME280;17676;52.254;4.490;2022-08-14T03:03:59;100953.31;;;22.02;100.00
31005;BME280;17676;52.254;4.490;2022-08-14T03:06:25;100950.84;;;21.96;100.00
31005;BME280;17676;52.254;4.490;2022-08-14T03:08:52;100946.16;;;22.01;100.00
31005;BME280;17676;52.254;4.490;2022-08-14T03:11:18;100952.19;;;22.03;100.00
31005;BME280;17676;52.254;4.490;2022-08-14T03:13:54;100955.50;;;22.10;100.00
31005;BME280;17676;52.254;4.490;2022-08-14T03:16:22;100939.00;;;22.00;100.00
31005;BME280;17676;52.254;4.490;2022-08-14T03:18:50;100939.56;;;21.97;100.00
31005;BME280;17676;52.254;4.490;2022-08-14T03:21:19;100925.50;;;21.89;100.00
31005;BME280;17676;52.254;4.490;2022-08-14T03:23:47;100936.81;;;21.92;100.00
31005;BME280;17676;52.254;4.490;2022-08-14T03:26:15;100938.41;;;22.03;100.00
31005;BME280;17676;52.254;4.490;2022-08-14T03:28:44;100945.56;;;22.14;100.00
31005;BME280;17676;52.254;4.490;2022-08-14T03:31:11;100932.34;;;22.06;100.00
31005;BME280;17676;52.254;4.490;2022-08-14T03:33:37;100924.09;;;22.01;100.00
31005;BME280;17676;52.254;4.490;2022-08-14T03:36:10;100940.06;;;22.09;100.00
31005;BME280;17676;52.254;4.490;2022-08-14T03:38:40;100928.53;;;21.97;100.00
31005;BME280;17676;52.254;4.490;2022-08-14T03:41:11;100914.22;;;21.90;100.00
31005;BME280;17676;52.254;4.490;2022-08-14T03:43:42;100921.94;;;21.88;100.00
31005;BME280;17676;52.254;4.490;2022-08-14T03:46:10;100927.47;;;21.68;100.00
31005;BME280;17676;52.254;4.490;2022-08-14T03:48:37;100927.19;;;21.80;100.00
31005;BME280;17676;52.254;4.490;2022-08-14T03:51:05;100928.00;;;21.90;100.00
31005;BME280;17676;52.254;4.490;2022-08-14T03:53:34;100936.00;;;21.92;100.00
31005;BME280;17676;52.254;4.490;2022-08-14T03:56:04;100916.72;;;21.77;100.00
31005;BME280;17676;52.254;4.490;2022-08-14T03:58:30;100915.38;;;21.74;100.00
31005;BME280;17676;52.254;4.490;2022-08-14T04:00:59;100912.63;;;21.64;100.00
31005;BME280;17676;52.254;4.490;2022-08-14T04:03:27;100925.84;;;21.62;100.00
31005;BME280;17676;52.254;4.490;2022-08-14T04:05:53;100929.94;;;21.65;100.00
31005;BME280;17676;52.254;4.490;2022-08-14T04:08:19;100926.94;;;21.66;100.00
31005;BME280;17676;52.254;4.490;2022-08-14T04:10:46;100923.63;;;21.64;100.00
31005;BME280;17676;52.254;4.490;2022-08-14T04:13:12;100917.03;;;21.50;100.00
31005;BME280;17676;52.254;4.490;2022-08-14T04:15:45;100913.19;;;21.51;100.00
31005;BME280;17676;52.254;4.490;2022-08-14T04:18:12;100914.31;;;21.45;100.00
31005;BME280;17676;52.254;4.490;2022-08-14T04:20:42;100917.03;;;21.50;100.00
31005;BME280;17676;52.254;4.490;2022-08-14T04:23:09;100922.84;;;21.54;100.00
31005;BME280;17676;52.254;4.490;2022-08-14T04:25:35;100923.13;;;21.52;100.00
31005;BME280;17676;52.254;4.490;2022-08-14T04:28:05;100931.94;;;21.49;100.00
31005;BME280;17676;52.254;4.490;2022-08-14T04:30:32;100903.88;;;21.32;100.00
31005;BME280;17676;52.254;4.490;2022-08-14T04:33:04;100916.78;;;21.37;100.00
31005;BME280;17676;52.254;4.490;2022-08-14T04:35:40;100919.81;;;21.40;100.00
31005;BME280;17676;52.254;4.490;2022-08-14T04:38:08;100912.66;;;21.34;100.00
31005;BME280;17676;52.254;4.490;2022-08-14T04:40:53;100902.50;;;21.30;100.00
31005;BME280;17676;52.254;4.490;2022-08-14T04:43:37;100899.47;;;21.31;100.00
31005;BME280;17676;52.254;4.490;2022-08-14T04:46:16;100893.69;;;21.23;100.00
31005;BME280;17676;52.254;4.490;2022-08-14T04:48:42;100901.94;;;21.28;100.00
31005;BME280;17676;52.254;4.490;2022-08-14T04:51:10;100892.31;;;21.20;100.00
31005;BME280;17676;52.254;4.490;2022-08-14T04:53:37;100904.13;;;21.36;100.00
31005;BME280;17676;52.254;4.490;2022-08-14T04:56:06;100900.81;;;21.44;100.00
31005;BME280;17676;52.254;4.490;2022-08-14T04:58:32;100898.31;;;21.42;100.00
31005;BME280;17676;52.254;4.490;2022-08-14T05:00:59;100896.69;;;21.41;100.00
31005;BME280;17676;52.254;4.490;2022-08-14T05:03:28;100892.81;;;21.42;100.00
31005;BME280;17676;52.254;4.490;2022-08-14T05:05:56;100901.91;;;21.48;100.00
31005;BME280;17676;52.254;4.490;2022-08-14T05:08:22;100894.47;;;21.48;100.00
31005;BME280;17676;52.254;4.490;2022-08-14T05:10:58;100895.00;;;21.50;100.00
31005;BME280;17676;52.254;4.490;2022-08-14T05:13:27;100890.06;;;21.52;100.00
31005;BME280;17676;52.254;4.490;2022-08-14T05:15:54;100881.25;;;21.55;100.00
31005;BME280;17676;52.254;4.490;2022-08-14T05:18:25;100883.69;;;21.57;100.00
31005;BME280;17676;52.254;4.490;2022-08-14T05:20:58;100885.63;;;21.61;100.00
31005;BME280;17676;52.254;4.490;2022-08-14T05:23:26;100881.22;;;21.60;100.00
31005;BME280;17676;52.254;4.490;2022-08-14T05:25:54;100882.28;;;21.69;100.00
31005;BME280;17676;52.254;4.490;2022-08-14T05:28:29;100891.94;;;21.82;100.00
31005;BME280;17676;52.254;4.490;2022-08-14T05:31:01;100881.16;;;21.85;100.00
31005;BME280;17676;52.254;4.490;2022-08-14T05:33:30;100886.63;;;21.95;100.00
31005;BME280;17676;52.254;4.490;2022-08-14T05:36:01;100880.00;;;22.01;100.00
31005;BME280;17676;52.254;4.490;2022-08-14T05:38:33;100881.06;;;22.05;100.00
31005;BME280;17676;52.254;4.490;2022-08-14T05:41:07;100878.31;;;22.05;100.00
31005;BME280;17676;52.254;4.490;2022-08-14T05:43:33;100876.09;;;22.12;100.00
31005;BME280;17676;52.254;4.490;2022-08-14T05:45:59;100862.25;;;22.17;100.00
31005;BME280;17676;52.254;4.490;2022-08-14T05:48:26;100863.88;;;22.28;100.00
31005;BME280;17676;52.254;4.490;2022-08-14T05:50:53;100875.94;;;22.37;100.00
31005;BME280;17676;52.254;4.490;2022-08-14T05:53:25;100879.72;;;22.51;100.00
31005;BME280;17676;52.254;4.490;2022-08-14T05:55:51;100878.56;;;22.62;100.00
31005;BME280;17676;52.254;4.490;2022-08-14T05:58:17;100877.44;;;22.68;100.00
31005;BME280;17676;52.254;4.490;2022-08-14T06:00:44;100872.94;;;22.77;100.00
31005;BME280;17676;52.254;4.490;2022-08-14T06:03:13;100873.44;;;22.84;100.00
31005;BME280;17676;52.254;4.490;2022-08-14T06:05:43;100870.97;;;22.83;100.00
31005;BME280;17676;52.254;4.490;2022-08-14T06:08:19;100877.22;;;22.93;100.00
31005;BME280;17676;52.254;4.490;2022-08-14T06:10:45;100866.06;;;23.03;100.00
31005;BME280;17676;52.254;4.490;2022-08-14T06:13:12;100869.38;;;23.05;100.00
31005;BME280;17676;52.254;4.490;2022-08-14T06:15:38;100885.84;;;23.15;100.00
31005;BME280;17676;52.254;4.490;2022-08-14T06:18:03;100878.13;;;23.17;100.00
31005;BME280;17676;52.254;4.490;2022-08-14T06:20:29;100876.41;;;23.26;100.00
31005;BME280;17676;52.254;4.490;2022-08-14T06:22:55;100879.16;;;23.26;100.00
31005;BME280;17676;52.254;4.490;2022-08-14T06:25:20;100876.63;;;23.30;100.00
31005;BME280;17676;52.254;4.490;2022-08-14T06:27:47;100877.47;;;23.30;100.00
31005;BME280;17676;52.254;4.490;2022-08-14T06:30:15;100882.84;;;23.46;100.00
31005;BME280;17676;52.254;4.490;2022-08-14T06:32:41;100877.03;;;23.71;100.00
31005;BME280;17676;52.254;4.490;2022-08-14T06:35:08;100870.69;;;24.73;100.00
31005;BME280;17676;52.254;4.490;2022-08-14T06:37:58;100878.59;;;26.65;100.00
31005;BME280;17676;52.254;4.490;2022-08-14T06:40:28;100877.03;;;28.17;98.41
31005;BME280;17676;52.254;4.490;2022-08-14T06:43:02;100874.53;;;29.68;88.62
31005;BME280;17676;52.254;4.490;2022-08-14T06:45:32;100876.47;;;30.14;82.65
31005;BME280;17676;52.254;4.490;2022-08-14T06:47:58;100875.28;;;31.05;77.49
31005;BME280;17676;52.254;4.490;2022-08-14T06:50:26;100885.19;;;31.80;72.79
31005;BME280;17676;52.254;4.490;2022-08-14T06:52:52;100886.22;;;32.48;71.08
31005;BME280;17676;52.254;4.490;2022-08-14T06:55:18;100883.19;;;32.41;69.17
31005;BME280;17676;52.254;4.490;2022-08-14T06:57:49;100872.09;;;32.96;67.49
31005;BME280;17676;52.254;4.490;2022-08-14T07:00:22;100861.56;;;32.93;66.48
31005;BME280;17676;52.254;4.490;2022-08-14T07:02:49;100872.44;;;32.55;66.86
31005;BME280;17676;52.254;4.490;2022-08-14T07:05:34;100874.81;;;32.05;68.07
31005;BME280;17676;52.254;4.490;2022-08-14T07:08:18;100858.22;;;32.12;67.29
31005;BME280;17676;52.254;4.490;2022-08-14T07:10:46;100848.16;;;32.47;65.23
31005;BME280;17676;52.254;4.490;2022-08-14T07:13:13;100859.03;;;32.88;64.60
31005;BME280;17676;52.254;4.490;2022-08-14T07:15:40;100863.41;;;33.01;64.27
31005;BME280;17676;52.254;4.490;2022-08-14T07:18:08;100862.66;;;33.31;62.43
31005;BME280;17676;52.254;4.490;2022-08-14T07:20:33;100848.81;;;32.95;63.07
31005;BME280;17676;52.254;4.490;2022-08-14T07:23:03;100850.53;;;33.27;62.71
31005;BME280;17676;52.254;4.490;2022-08-14T07:25:30;100862.63;;;33.43;61.09
31005;BME280;17676;52.254;4.490;2022-08-14T07:27:56;100866.63;;;33.15;62.39
31005;BME280;17676;52.254;4.490;2022-08-14T07:30:22;100862.69;;;33.04;62.73
31005;BME280;17676;52.254;4.490;2022-08-14T07:32:49;100862.00;;;33.07;63.32
31005;BME280;17676;52.254;4.490;2022-08-14T07:35:15;100854.72;;;32.78;62.57
31005;BME280;17676;52.254;4.490;2022-08-14T07:37:40;100868.91;;;33.52;61.07
31005;BME280;17676;52.254;4.490;2022-08-14T07:40:09;100860.50;;;33.99;60.14
31005;BME280;17676;52.254;4.490;2022-08-14T07:42:35;100860.84;;;33.66;60.34
31005;BME280;17676;52.254;4.490;2022-08-14T07:45:01;100871.88;;;33.44;60.76
31005;BME280;17676;52.254;4.490;2022-08-14T07:47:26;100865.00;;;33.57;61.74
31005;BME280;17676;52.254;4.490;2022-08-14T07:50:03;100869.19;;;33.63;61.07
31005;BME280;17676;52.254;4.490;2022-08-14T07:52:29;100864.34;;;33.63;60.53
31005;BME280;17676;52.254;4.490;2022-08-14T07:54:55;100872.94;;;34.48;59.31
31005;BME280;17676;52.254;4.490;2022-08-14T07:57:20;100859.19;;;33.81;59.64
31005;BME280;17676;52.254;4.490;2022-08-14T07:59:47;100852.84;;;34.15;59.13
31005;BME280;17676;52.254;4.490;2022-08-14T08:02:14;100854.63;;;34.92;58.03
31005;BME280;17676;52.254;4.490;2022-08-14T08:04:43;100856.06;;;35.88;55.22
31005;BME280;17676;52.254;4.490;2022-08-14T08:07:12;100854.09;;;35.47;55.79
31005;BME280;17676;52.254;4.490;2022-08-14T08:09:42;100857.41;;;35.30;56.18
31005;BME280;17676;52.254;4.490;2022-08-14T08:12:08;100848.66;;;35.16;56.69
31005;BME280;17676;52.254;4.490;2022-08-14T08:14:36;100838.16;;;35.77;55.74
31005;BME280;17676;52.254;4.490;2022-08-14T08:17:02;100837.19;;;35.70;55.59
31005;BME280;17676;52.254;4.490;2022-08-14T08:19:28;100832.41;;;35.96;55.24
31005;BME280;17676;52.254;4.490;2022-08-14T08:21:57;100820.69;;;36.20;56.42
31005;BME280;17676;52.254;4.490;2022-08-14T08:24:22;100824.06;;;36.88;54.71
31005;BME280;17676;52.254;4.490;2022-08-14T08:26:48;100827.16;;;36.76;52.79
31005;BME280;17676;52.254;4.490;2022-08-14T08:29:21;100827.81;;;36.66;52.16
31005;BME280;17676;52.254;4.490;2022-08-14T08:31:49;100823.41;;;36.39;52.93
31005;BME280;17676;52.254;4.490;2022-08-14T08:34:18;100823.56;;;36.79;51.81
31005;BME280;17676;52.254;4.490;2022-08-14T08:36:45;100816.44;;;36.59;51.76
31005;BME280;17676;52.254;4.490;2022-08-14T08:39:11;100818.09;;;37.70;49.55
31005;BME280;17676;52.254;4.490;2022-08-14T08:41:40;100821.44;;;36.69;51.01
31005;BME280;17676;52.254;4.490;2022-08-14T08:44:06;100806.69;;;36.53;51.75
31005;BME280;17676;52.254;4.490;2022-08-14T08:46:31;100805.44;;;36.80;53.08
31005;BME280;17676;52.254;4.490;2022-08-14T08:48:58;100818.16;;;36.67;52.62
31005;BME280;17676;52.254;4.490;2022-08-14T08:51:29;100821.25;;;36.03;54.44
31005;BME280;17676;52.254;4.490;2022-08-14T08:54:09;100812.91;;;35.84;54.22
31005;BME280;17676;52.254;4.490;2022-08-14T08:56:41;100829.44;;;36.67;52.99
31005;BME280;17676;52.254;4.490;2022-08-14T09:01:57;100816.44;;;36.59;52.71
31005;BME280;17676;52.254;4.490;2022-08-14T09:04:29;100810.56;;;36.16;53.80
31005;BME280;17676;52.254;4.490;2022-08-14T09:06:56;100804.38;;;36.62;53.56
31005;BME280;17676;52.254;4.490;2022-08-14T09:09:27;100797.03;;;37.60;51.57
31005;BME280;17676;52.254;4.490;2022-08-14T09:11:54;100795.50;;;37.70;49.85
31005;BME280;17676;52.254;4.490;2022-08-14T09:14:21;100782.09;;;36.24;52.51
31005;BME280;17676;52.254;4.490;2022-08-14T09:16:50;100782.44;;;35.93;54.47
31005;BME280;17676;52.254;4.490;2022-08-14T09:19:17;100782.78;;;37.10;52.46
31005;BME280;17676;52.254;4.490;2022-08-14T09:21:43;100787.34;;;37.21;51.11
31005;BME280;17676;52.254;4.490;2022-08-14T09:24:11;100789.75;;;37.59;51.24
31005;BME280;17676;52.254;4.490;2022-08-14T09:26:37;100791.97;;;37.83;50.45
31005;BME280;17676;52.254;4.490;2022-08-14T09:29:05;100797.50;;;37.29;52.84
31005;BME280;17676;52.254;4.490;2022-08-14T09:31:32;100787.19;;;36.41;51.83
31005;BME280;17676;52.254;4.490;2022-08-14T09:42:22;100791.66;;;37.95;49.75
31005;BME280;17676;52.254;4.490;2022-08-14T09:45:15;100776.22;;;38.50;49.57
31005;BME280;17676;52.254;4.490;2022-08-14T09:47:51;100771.84;;;37.95;47.97
31005;BME280;17676;52.254;4.490;2022-08-14T09:50:24;100760.09;;;37.39;48.41
31005;BME280;17676;52.254;4.490;2022-08-14T09:53:04;100769.34;;;37.36;49.86
31005;BME280;17676;52.254;4.490;2022-08-14T09:55:34;100758.41;;;37.35;50.17
31005;BME280;17676;52.254;4.490;2022-08-14T09:58:33;100772.56;;;37.82;50.44
31005;BME280;17676;52.254;4.490;2022-08-14T10:01:11;100767.69;;;37.79;49.73
31005;BME280;17676;52.254;4.490;2022-08-14T10:03:45;100754.97;;;37.55;49.99
31005;BME280;17676;52.254;4.490;2022-08-14T10:06:15;100754.88;;;37.95;49.92
31005;BME280;17676;52.254;4.490;2022-08-14T10:11:25;100752.31;;;38.41;47.64
31005;BME280;17676;52.254;4.490;2022-08-14T10:13:53;100742.19;;;38.36;47.32
31005;BME280;17676;52.254;4.490;2022-08-14T10:16:20;100736.25;;;37.91;49.47
31005;BME280;17676;52.254;4.490;2022-08-14T10:19:09;100732.22;;;37.92;49.15
31005;BME280;17676;52.254;4.490;2022-08-14T10:21:39;100726.53;;;38.60;48.04
31005;BME280;17676;52.254;4.490;2022-08-14T10:24:08;100730.03;;;38.29;49.18
31005;BME280;17676;52.254;4.490;2022-08-14T10:26:34;100724.47;;;37.78;49.45
31005;BME280;17676;52.254;4.490;2022-08-14T10:29:07;100715.78;;;37.54;50.07
31005;BME280;17676;52.254;4.490;2022-08-14T10:31:34;100720.25;;;37.11;49.20
31005;BME280;17676;52.254;4.490;2022-08-14T10:34:10;100719.16;;;37.66;49.16
31005;BME280;17676;52.254;4.490;2022-08-14T10:36:42;100712.84;;;36.96;48.35
31005;BME280;17676;52.254;4.490;2022-08-14T10:39:20;100711.31;;;37.02;49.66
31005;BME280;17676;52.254;4.490;2022-08-14T10:42:12;100718.47;;;37.33;48.69
31005;BME280;17676;52.254;4.490;2022-08-14T10:44:39;100702.72;;;36.59;50.21
31005;BME280;17676;52.254;4.490;2022-08-14T10:47:06;100717.13;;;36.80;48.74
31005;BME280;17676;52.254;4.490;2022-08-14T10:49:37;100695.00;;;36.85;48.16
31005;BME280;17676;52.254;4.490;2022-08-14T10:52:06;100695.94;;;36.63;47.97
31005;BME280;17676;52.254;4.490;2022-08-14T11:14:53;100688.94;;;35.36;49.09
31005;BME280;17676;52.254;4.490;2022-08-14T11:17:19;100688.53;;;35.63;49.32
31005;BME280;17676;52.254;4.490;2022-08-14T11:19:45;100692.91;;;36.13;48.84
31005;BME280;17676;52.254;4.490;2022-08-14T11:22:13;100684.81;;;36.11;47.73
31005;BME280;17676;52.254;4.490;2022-08-14T11:24:43;100687.59;;;35.52;49.18
31005;BME280;17676;52.254;4.490;2022-08-14T11:27:11;100668.56;;;35.23;48.44
31005;BME280;17676;52.254;4.490;2022-08-14T11:29:39;100676.78;;;35.32;48.10
31005;BME280;17676;52.254;4.490;2022-08-14T11:32:07;100684.25;;;35.73;48.35
31005;BME280;17676;52.254;4.490;2022-08-14T11:34:36;100677.59;;;35.58;45.25
31005;BME280;17676;52.254;4.490;2022-08-14T11:37:09;100680.88;;;35.86;44.67
31005;BME280;17676;52.254;4.490;2022-08-14T11:39:35;100675.22;;;35.86;44.12
31005;BME280;17676;52.254;4.490;2022-08-14T11:42:06;100682.47;;;35.87;45.52
31005;BME280;17676;52.254;4.490;2022-08-14T11:44:32;100685.03;;;35.96;44.48
31005;BME280;17676;52.254;4.490;2022-08-14T11:46:57;100683.69;;;35.60;43.53
31005;BME280;17676;52.254;4.490;2022-08-14T11:49:26;100684.88;;;35.33;44.70
31005;BME280;17676;52.254;4.490;2022-08-14T11:51:53;100674.03;;;35.12;45.14
31005;BME280;17676;52.254;4.490;2022-08-14T11:54:22;100677.66;;;35.13;44.00
31005;BME280;17676;52.254;4.490;2022-08-14T11:56:48;100671.91;;;35.06;42.28
31005;BME280;17676;52.254;4.490;2022-08-14T11:59:18;100676.91;;;35.39;41.41
31005;BME280;17676;52.254;4.490;2022-08-14T12:01:45;100666.94;;;35.71;41.03
31005;BME280;17676;52.254;4.490;2022-08-14T12:09:28;100658.28;;;36.45;41.20
31005;BME280;17676;52.254;4.490;2022-08-14T12:11:57;100655.34;;;36.05;41.59
31005;BME280;17676;52.254;4.490;2022-08-14T12:14:23;100649.56;;;35.95;41.61
31005;BME280;17676;52.254;4.490;2022-08-14T12:17:04;100648.69;;;35.12;41.98
31005;BME280;17676;52.254;4.490;2022-08-14T12:19:43;100635.34;;;34.64;42.52
31005;BME280;17676;52.254;4.490;2022-08-14T12:22:08;100632.78;;;34.97;41.61
31005;BME280;17676;52.254;4.490;2022-08-14T12:24:34;100634.31;;;35.17;41.87
31005;BME280;17676;52.254;4.490;2022-08-14T12:26:59;100631.25;;;35.03;40.28
31005;BME280;17676;52.254;4.490;2022-08-14T12:29:24;100627.41;;;35.15;40.56
31005;BME280;17676;52.254;4.490;2022-08-14T12:31:58;100624.19;;;35.13;42.34
31005;BME280;17676;52.254;4.490;2022-08-14T12:34:33;100619.66;;;35.31;40.12
31005;BME280;17676;52.254;4.490;2022-08-14T12:37:07;100624.47;;;34.82;40.14
31005;BME280;17676;52.254;4.490;2022-08-14T12:39:34;100609.34;;;34.71;41.70
31005;BME280;17676;52.254;4.490;2022-08-14T12:42:01;100612.56;;;34.69;42.25
31005;BME280;17676;52.254;4.490;2022-08-14T12:44:38;100615.75;;;35.39;40.30
31005;BME280;17676;52.254;4.490;2022-08-14T12:47:08;100612.28;;;35.49;40.12
31005;BME280;17676;52.254;4.490;2022-08-14T12:49:51;100604.41;;;35.32;39.41
31005;BME280;17676;52.254;4.490;2022-08-14T12:52:30;100603.75;;;35.46;40.54
31005;BME280;17676;52.254;4.490;2022-08-14T12:55:01;100595.94;;;35.32;38.71
31005;BME280;17676;52.254;4.490;2022-08-14T12:57:38;100595.81;;;35.51;39.88
31005;BME280;17676;52.254;4.490;2022-08-14T13:00:09;100597.72;;;35.17;38.60
31005;BME280;17676;52.254;4.490;2022-08-14T13:02:46;100581.91;;;34.87;38.88
31005;BME280;17676;52.254;4.490;2022-08-14T13:05:14;100578.44;;;35.19;39.38
31005;BME280;17676;52.254;4.490;2022-08-14T13:07:42;100579.91;;;34.65;38.94
31005;BME280;17676;52.254;4.490;2022-08-14T13:12:10;100575.91;;;34.66;40.59
31005;BME280;17676;52.254;4.490;2022-08-14T13:14:37;100578.41;;;34.71;42.02
31005;BME280;17676;52.254;4.490;2022-08-14T13:17:02;100582.38;;;35.15;40.82
31005;BME280;17676;52.254;4.490;2022-08-14T13:19:28;100580.97;;;35.02;41.36
31005;BME280;17676;52.254;4.490;2022-08-14T13:21:54;100570.78;;;34.94;41.03
31005;BME280;17676;52.254;4.490;2022-08-14T13:24:22;100571.66;;;35.50;41.00
31005;BME280;17676;52.254;4.490;2022-08-14T13:26:53;100569.06;;;35.38;38.97
31005;BME280;17676;52.254;4.490;2022-08-14T13:29:29;100553.25;;;35.04;39.88
31005;BME280;17676;52.254;4.490;2022-08-14T13:32:07;100552.19;;;34.41;39.00
31005;BME280;17676;52.254;4.490;2022-08-14T13:34:33;100553.94;;;34.49;39.28
31005;BME280;17676;52.254;4.490;2022-08-14T13:37:01;100547.25;;;34.34;40.12